Time;durP1;ratioP1;P1;durP2;ratioP2;P2;SDS_P1;SDS_P2;PMS_P1;PMS_P2;Temp;Humidity;BMP_temperature;BMP_pressure;BME280_temperature;BME280_humidity;BME280_pressure;Samples;Min_cycle;Max_cycle;Signal;HPM_P1;HPM_P2
2022/11/08 00:01:31;;;;;;;7.63;4.82;;;;;;;16.83;50.75;93533.28;5069576;28;20395;-85
2022/11/08 00:04:05;;;;;;;4.68;3.70;;;;;;;16.84;50.88;93544.94;5068442;28;20064;-89
2022/11/08 00:14:42;;;;;;;5.78;3.72;;;;;;;16.81;50.78;93541.22;5060656;28;20039;-86
2022/11/08 00:17:08;;;;;;;6.60;4.40;;;;;;;16.81;50.97;93537.75;5054658;28;20387;-84
2022/11/08 00:19:33;;;;;;;4.55;4.15;;;;;;;16.81;50.95;93532.28;5021283;28;20071;-87
2022/11/08 00:21:59;;;;;;;5.72;3.85;;;;;;;16.84;50.56;93537.50;5030261;28;20423;-85
2022/11/08 00:24:24;;;;;;;5.55;4.25;;;;;;;16.81;51.07;93530.28;4996593;28;20045;-89
2022/11/08 00:26:50;;;;;;;5.45;4.13;;;;;;;16.77;50.70;93538.72;5013565;28;20522;-87
2022/11/08 00:29:15;;;;;;;11.45;3.70;;;;;;;16.78;50.85;93531.28;4996458;28;20044;-85
2022/11/08 00:31:42;;;;;;;4.93;3.80;;;;;;;16.84;50.80;93540.22;5027222;28;20048;-85
2022/11/08 00:34:07;;;;;;;5.97;3.85;;;;;;;16.82;50.58;93533.78;5012987;28;20041;-87
2022/11/08 00:36:33;;;;;;;5.07;3.50;;;;;;;16.79;50.94;93541.72;5045187;28;20066;-85
2022/11/08 00:38:58;;;;;;;4.18;3.13;;;;;;;16.81;50.38;93529.56;5032153;28;20036;-86
2022/11/08 00:41:23;;;;;;;4.82;3.55;;;;;;;16.81;51.10;93532.28;5032329;28;20033;-88
2022/11/08 00:43:49;;;;;;;4.65;3.47;;;;;;;16.81;51.07;93533.03;5033080;28;20143;-88
2022/11/08 00:46:14;;;;;;;3.67;3.08;;;;;;;16.84;50.06;93525.81;5032682;28;20033;-86
2022/11/08 00:48:40;;;;;;;4.95;3.75;;;;;;;16.82;50.60;93525.56;5035751;28;20048;-86
2022/11/08 00:51:08;;;;;;;4.72;3.67;;;;;;;16.81;50.82;93522.09;5044456;28;20039;-84
2022/11/08 00:53:35;;;;;;;5.03;3.28;;;;;;;16.79;50.59;93519.88;5054772;28;20040;-85
2022/11/08 00:56:02;;;;;;;4.25;2.92;;;;;;;16.77;50.51;93516.16;5060549;28;20082;-84
2022/11/08 00:58:27;;;;;;;3.53;2.97;;;;;;;16.81;50.83;93515.91;5053467;28;20093;-89
2022/11/08 01:00:53;;;;;;;3.95;3.00;;;;;;;16.78;50.53;93514.91;5060418;28;20044;-89
2022/11/08 01:03:18;;;;;;;4.15;3.22;;;;;;;16.81;50.53;93516.66;5062138;28;20113;-87
2022/11/08 01:05:43;;;;;;;5.18;3.42;;;;;;;16.82;50.74;93522.84;5061171;28;20045;-89
2022/11/08 01:08:09;;;;;;;4.78;3.00;;;;;;;16.79;50.35;93511.69;5063646;28;20027;-88
2022/11/08 01:10:35;;;;;;;3.92;3.13;;;;;;;16.81;50.87;93518.63;5062917;28;20122;-88
2022/11/08 01:13:00;;;;;;;5.00;3.67;;;;;;;16.79;50.73;93519.13;5045881;28;20040;-87
2022/11/08 01:15:26;;;;;;;3.47;2.85;;;;;;;16.83;50.79;93508.69;5090084;28;20436;-84
2022/11/08 01:17:51;;;;;;;4.50;3.22;;;;;;;16.80;50.60;93515.16;5054040;28;20134;-88
2022/11/08 01:20:16;;;;;;;4.32;3.22;;;;;;;16.82;50.48;93517.38;5080813;28;20110;-87
2022/11/08 01:22:42;;;;;;;4.22;2.88;;;;;;;16.79;50.96;93510.94;5102681;28;20032;-89
2022/11/08 01:25:07;;;;;;;3.92;2.72;;;;;;;16.77;50.68;93503.25;5053205;28;20052;-89
2022/11/08 01:27:33;;;;;;;4.28;3.00;;;;;;;16.79;50.60;93505.47;5037922;28;20056;-89
2022/11/08 01:29:58;;;;;;;4.18;3.42;;;;;;;16.79;50.41;93503.50;5054973;28;20398;-88
2022/11/08 01:32:23;;;;;;;3.53;2.70;;;;;;;16.78;50.68;93495.78;5035589;28;20044;-86
2022/11/08 01:34:49;;;;;;;3.55;2.75;;;;;;;16.77;50.63;93500.50;5036915;28;20093;-87
2022/11/08 01:37:14;;;;;;;3.10;2.80;;;;;;;16.78;50.69;93499.28;5052793;28;20047;-88
2022/11/08 01:39:40;;;;;;;2.70;2.42;;;;;;;16.78;50.27;93499.28;5053987;28;20394;-85
2022/11/08 01:42:05;;;;;;;2.70;2.30;;;;;;;16.79;50.68;93500.00;5052772;28;20032;-85
2022/11/08 01:44:30;;;;;;;3.15;2.30;;;;;;;16.77;50.61;93494.31;5052097;28;20032;-84
2022/11/08 01:46:56;;;;;;;4.00;2.65;;;;;;;16.77;50.35;93488.84;5070179;28;20125;-87
2022/11/08 01:49:30;;;;;;;3.13;2.40;;;;;;;16.77;50.81;93483.38;5046720;28;20055;-87
2022/11/08 01:52:22;;;;;;;3.10;2.38;;;;;;;16.77;50.67;93480.66;5048789;28;20028;-89
2022/11/08 01:55:01;;;;;;;3.83;2.58;;;;;;;16.75;50.45;93475.69;5069739;28;20513;-89
2022/11/08 01:57:34;;;;;;;4.70;2.78;;;;;;;16.76;50.46;93476.44;5049662;28;20501;-86
2022/11/08 02:00:02;;;;;;;2.63;2.20;;;;;;;16.76;50.51;93479.91;5016966;28;20050;-87
2022/11/08 02:02:27;;;;;;;3.40;2.40;;;;;;;16.75;50.69;93472.97;5048907;28;20028;-86
2022/11/08 02:04:53;;;;;;;3.55;2.40;;;;;;;16.77;50.44;93475.19;5084408;28;20040;-87
2022/11/08 02:07:18;;;;;;;3.08;2.25;;;;;;;16.77;50.75;93473.22;5016720;28;20040;-85
2022/11/08 02:09:44;;;;;;;2.72;2.15;;;;;;;16.75;50.50;93472.22;5016456;28;20063;-89
2022/11/08 02:12:09;;;;;;;3.30;2.70;;;;;;;16.74;50.84;93476.19;5025739;28;20051;-88
2022/11/08 02:14:35;;;;;;;3.30;2.25;;;;;;;16.75;50.71;93469.50;5052816;28;20429;-84
2022/11/08 02:17:01;;;;;;;3.20;2.28;;;;;;;16.74;50.63;93470.72;5059616;28;20048;-86
2022/11/08 02:19:38;;;;;;;3.20;2.30;;;;;;;16.74;50.47;93460.56;5033916;28;20762;-86
2022/11/08 02:22:06;;;;;;;3.22;2.10;;;;;;;16.76;50.71;93454.59;5049157;28;20043;-89
2022/11/08 02:24:31;;;;;;;2.70;2.03;;;;;;;16.75;50.29;93459.31;5046892;28;20047;-87
2022/11/08 02:26:56;;;;;;;3.25;2.42;;;;;;;16.75;50.68;93451.13;5049107;28;20041;-89
2022/11/08 02:29:22;;;;;;;3.03;2.10;;;;;;;16.74;50.32;93452.38;5052465;28;20053;-89
2022/11/08 02:31:47;;;;;;;3.33;2.38;;;;;;;16.73;50.31;93445.41;5086478;28;20039;-89
2022/11/08 02:34:12;;;;;;;2.78;2.08;;;;;;;16.74;50.31;93435.25;5069774;28;20035;-87
2022/11/08 02:36:38;;;;;;;1.88;1.67;;;;;;;16.76;50.44;93435.50;5128565;28;20453;-89
2022/11/08 02:39:03;;;;;;;2.20;1.73;;;;;;;16.75;50.96;93431.28;5091538;28;20040;-89
2022/11/08 02:41:28;;;;;;;2.80;2.20;;;;;;;16.75;50.12;93434.75;5110060;28;20038;-85
2022/11/08 02:43:56;;;;;;;2.65;2.13;;;;;;;16.74;50.25;93418.88;5102153;28;20448;-86
2022/11/08 02:46:21;;;;;;;2.53;2.10;;;;;;;16.74;50.33;93422.34;5069000;28;20058;-87
2022/11/08 02:48:47;;;;;;;2.78;1.90;;;;;;;16.72;50.58;93419.38;5056056;28;20490;-86
2022/11/08 02:51:12;;;;;;;3.40;2.25;;;;;;;16.71;50.35;93417.88;5088581;28;20040;-84
2022/11/08 02:53:37;;;;;;;2.90;1.80;;;;;;;16.74;50.85;93425.06;5055377;28;20093;-89
2022/11/08 02:56:03;;;;;;;2.05;1.85;;;;;;;16.72;50.34;93422.09;5070054;28;20086;-85
2022/11/08 02:58:28;;;;;;;2.58;2.03;;;;;;;16.72;50.65;93410.44;5046863;28;20055;-88
2022/11/08 03:00:54;;;;;;;2.75;1.80;;;;;;;16.72;50.51;93408.44;5089491;28;20062;-86
2022/11/08 03:03:19;;;;;;;3.03;2.13;;;;;;;16.75;50.80;93398.50;5089368;27;20042;-85
2022/11/08 03:05:46;;;;;;;3.22;1.95;;;;;;;16.73;50.53;93401.00;5112338;27;20032;-87
2022/11/08 03:08:12;;;;;;;2.17;1.70;;;;;;;16.73;50.30;93392.81;5096860;27;20033;-88
2022/11/08 03:10:37;;;;;;;2.55;1.83;;;;;;;16.74;50.45;93391.56;5096638;27;20737;-84
2022/11/08 03:13:03;;;;;;;2.92;2.08;;;;;;;16.72;50.31;93402.25;5096165;27;20043;-87
2022/11/08 03:15:29;;;;;;;2.10;1.73;;;;;;;16.71;50.12;93395.28;5096350;27;20054;-89
2022/11/08 03:17:54;;;;;;;2.42;1.77;;;;;;;16.71;50.22;93390.56;5093605;27;20490;-85
2022/11/08 03:20:20;;;;;;;3.38;1.73;;;;;;;16.71;50.40;93389.84;5072606;28;20043;-88
2022/11/08 03:22:46;;;;;;;2.22;1.77;;;;;;;16.72;50.53;93378.41;5058800;28;20410;-88
2022/11/08 03:25:11;;;;;;;3.05;1.70;;;;;;;16.70;50.29;93380.91;5112322;27;20043;-85
2022/11/08 03:27:36;;;;;;;1.90;1.60;;;;;;;16.72;50.03;93386.59;5079518;27;20031;-84
2022/11/08 03:30:03;;;;;;;2.58;1.50;;;;;;;16.71;50.38;93387.84;5059794;28;20040;-85
2022/11/08 03:32:28;;;;;;;2.95;1.60;;;;;;;16.70;50.53;93385.63;5024703;28;20126;-88
2022/11/08 03:34:54;;;;;;;2.58;1.60;;;;;;;16.72;50.58;93381.16;5055811;28;20043;-89
2022/11/08 03:37:21;;;;;;;3.38;1.73;;;;;;;16.70;50.08;93380.16;5071881;28;20032;-85
2022/11/08 03:39:47;;;;;;;2.50;1.98;;;;;;;16.68;49.94;93390.81;5039971;28;20119;-88
2022/11/08 03:42:12;;;;;;;2.35;1.65;;;;;;;16.70;50.35;93391.81;5055417;28;20036;-88
2022/11/08 03:44:39;;;;;;;2.20;1.55;;;;;;;16.70;50.51;93386.38;5073820;28;20036;-86
2022/11/08 03:47:04;;;;;;;1.90;1.60;;;;;;;16.68;50.37;93375.19;5035323;28;20040;-89
2022/11/08 03:49:29;;;;;;;1.98;1.48;;;;;;;16.68;50.31;93382.63;5046048;28;20036;-86
2022/11/08 03:51:55;;;;;;;2.35;1.67;;;;;;;16.71;49.98;93376.94;5052503;28;20032;-88
2022/11/08 03:54:20;;;;;;;2.47;1.60;;;;;;;16.69;50.01;93382.16;5048043;28;20395;-88
2022/11/08 03:56:46;;;;;;;2.53;1.77;;;;;;;16.68;50.14;93377.19;5071778;28;20040;-86
2022/11/08 03:59:11;;;;;;;2.22;1.60;;;;;;;16.69;50.35;93373.22;5055195;28;20040;-88
2022/11/08 04:01:37;;;;;;;1.67;1.45;;;;;;;16.69;50.17;93384.13;5038758;28;20074;-89
2022/11/08 04:04:03;;;;;;;1.35;1.25;;;;;;;16.70;50.19;93391.06;5034830;28;20064;-85
2022/11/08 04:06:28;;;;;;;2.33;1.45;;;;;;;16.70;49.88;93396.53;5018457;28;20040;-89
2022/11/08 04:08:54;;;;;;;2.22;1.40;;;;;;;16.68;50.14;93391.56;5030769;28;20040;-87
2022/11/08 04:16:47;;;;;;;2.38;1.60;;;;;;;16.68;50.07;93382.63;5060677;28;20540;-86
2022/11/08 04:21:56;;;;;;;2.03;1.50;;;;;;;16.68;50.22;93390.81;5055656;28;20119;-85
2022/11/08 04:24:21;;;;;;;1.45;1.25;;;;;;;16.69;50.09;93395.03;5067653;28;20032;-87
2022/11/08 04:26:47;;;;;;;1.50;1.38;;;;;;;16.66;50.37;93390.59;5068568;28;20044;-87
2022/11/08 04:29:12;;;;;;;2.30;1.20;;;;;;;16.67;50.21;93395.53;5050703;28;20032;-88
2022/11/08 04:31:37;;;;;;;1.67;1.20;;;;;;;16.66;50.23;93393.34;5032212;28;20055;-85
2022/11/08 04:34:03;;;;;;;1.85;1.23;;;;;;;16.66;50.23;93387.88;5037600;28;20036;-84
2022/11/08 04:36:28;;;;;;;1.73;1.25;;;;;;;16.66;50.20;93391.34;5088461;28;20035;-87
2022/11/08 04:38:53;;;;;;;1.40;1.20;;;;;;;16.66;50.45;93387.88;5074836;28;20363;-87
2022/11/08 04:41:20;;;;;;;1.80;1.23;;;;;;;16.65;50.30;93387.13;5073789;28;20042;-89
2022/11/08 04:43:46;;;;;;;2.08;1.23;;;;;;;16.65;50.24;93378.22;5074753;28;20258;-89
2022/11/08 04:46:13;;;;;;;9.15;2.08;;;;;;;16.70;50.45;93380.16;5073573;28;20510;-87
2022/11/08 04:48:39;;;;;;;2.30;1.45;;;;;;;16.70;50.74;93369.97;5072521;28;20502;-89
2022/11/08 04:51:10;;;;;;;7.43;1.75;;;;;;;16.72;50.23;93372.97;5047562;28;20101;-85
2022/11/08 04:53:35;;;;;;;2.22;1.20;;;;;;;16.73;50.21;93370.97;5061828;28;20032;-87
2022/11/08 04:56:07;;;;;;;2.22;1.30;;;;;;;16.70;50.18;93367.25;5064381;28;20107;-87
2022/11/08 04:58:37;;;;;;;1.20;1.00;;;;;;;16.73;49.89;93374.44;5071986;28;20112;-85
2022/11/08 05:01:03;;;;;;;2.72;1.30;;;;;;;16.73;50.02;93369.00;5072087;28;20300;-87
2022/11/08 05:03:29;;;;;;;1.75;1.40;;;;;;;16.71;49.92;93368.75;5037819;28;20086;-90
2022/11/08 05:05:54;;;;;;;2.83;1.30;;;;;;;16.70;49.86;93361.78;5052639;28;20048;-86
2022/11/08 05:08:20;;;;;;;1.77;1.10;;;;;;;16.70;49.92;93364.53;5089624;28;20028;-87
2022/11/08 05:10:45;;;;;;;4.15;2.03;;;;;;;16.61;48.00;93362.06;5054248;28;20035;-85
2022/11/08 05:13:10;;;;;;;14.13;5.18;;;;;;;16.59;46.99;93366.53;5091728;28;20043;-88
2022/11/08 05:15:36;;;;;;;11.88;5.82;;;;;;;16.48;46.67;93359.09;5040745;28;20490;-85
2022/11/08 05:18:01;;;;;;;12.55;5.00;;;;;;;16.37;45.42;93356.41;5052820;28;20051;-88
2022/11/08 05:23:23;;;;;;;12.55;5.35;;;;;;;16.42;45.86;93350.94;5072811;28;20622;-85
2022/11/08 05:25:48;;;;;;;9.98;4.88;;;;;;;16.43;45.89;93357.13;5072416;28;20047;-87
2022/11/08 05:28:14;;;;;;;8.60;5.07;;;;;;;16.45;45.92;93357.38;5089739;28;20028;-88
2022/11/08 05:30:40;;;;;;;117.63;89.93;;;;;;;16.50;46.84;93356.59;5072551;28;20143;-89
2022/11/08 05:33:05;;;;;;;29.63;14.05;;;;;;;16.55;47.63;93355.84;5071393;28;20043;-87
2022/11/08 05:35:33;;;;;;;51.53;25.75;;;;;;;16.57;47.78;93356.09;5095432;28;20031;-88
2022/11/08 05:37:59;;;;;;;42.80;19.08;;;;;;;16.61;48.63;93353.13;5060384;28;20629;-85
2022/11/08 05:40:24;;;;;;;271.90;230.75;;;;;;;16.61;48.31;93347.66;5075341;28;20080;-88
2022/11/08 05:42:56;;;;;;;56.65;28.73;;;;;;;16.63;48.38;93345.19;5092329;28;20406;-87
2022/11/08 05:45:21;;;;;;;153.43;99.28;;;;;;;16.67;48.56;93360.06;5064747;28;20032;-88
2022/11/08 05:47:47;;;;;;;66.53;26.90;;;;;;;16.63;48.48;93356.88;5087986;28;20044;-88
2022/11/08 05:50:12;;;;;;;51.53;24.52;;;;;;;16.63;48.30;93362.31;5046664;28;20044;-89
2022/11/08 05:52:38;;;;;;;53.70;25.40;;;;;;;16.63;48.57;93348.69;5053882;28;20043;-88
2022/11/08 05:55:04;;;;;;;72.47;25.98;;;;;;;16.64;48.65;93363.06;5056189;28;20096;-86
2022/11/08 05:57:32;;;;;;;62.47;25.75;;;;;;;16.65;48.26;93361.84;5063910;28;20044;-89
2022/11/08 05:59:57;;;;;;;63.22;25.63;;;;;;;16.66;48.41;93364.06;5058082;28;20044;-89
2022/11/08 06:02:22;;;;;;;69.25;25.55;;;;;;;16.66;48.61;93364.06;5085703;28;20042;-88
2022/11/08 06:04:48;;;;;;;49.97;26.25;;;;;;;16.66;48.30;93364.06;5089528;27;20499;-85
2022/11/08 06:07:13;;;;;;;61.33;25.67;;;;;;;16.65;48.23;93367.28;5075661;28;20053;-86
2022/11/08 06:09:39;;;;;;;46.88;23.17;;;;;;;16.66;48.19;93363.31;5069798;28;20051;-88
2022/11/08 06:12:04;;;;;;;52.95;23.73;;;;;;;16.67;48.12;93367.53;5060468;27;20039;-85
2022/11/08 06:14:30;;;;;;;44.72;23.42;;;;;;;16.64;48.31;93374.72;5079136;28;20114;-85
2022/11/08 06:16:56;;;;;;;53.28;24.75;;;;;;;16.66;48.08;93372.25;5043720;28;20040;-84
2022/11/08 06:19:21;;;;;;;46.70;23.70;;;;;;;16.70;47.85;93372.72;5050917;28;20557;-86
2022/11/08 06:21:47;;;;;;;51.10;25.30;;;;;;;16.72;48.03;93375.69;5074180;28;20126;-87
2022/11/08 06:24:14;;;;;;;63.75;27.17;;;;;;;16.68;48.14;93372.47;5043100;28;20398;-88
2022/11/08 06:26:40;;;;;;;53.65;25.95;;;;;;;16.72;48.33;93372.97;5056941;28;20035;-87
2022/11/08 06:29:05;;;;;;;56.15;27.80;;;;;;;16.70;48.19;93374.69;5064624;28;20058;-87
2022/11/08 06:31:30;;;;;;;60.55;25.83;;;;;;;16.71;48.44;93370.72;5066846;28;20039;-87
2022/11/08 06:33:56;;;;;;;53.80;26.80;;;;;;;16.72;48.22;93370.22;5068608;28;20063;-86
2022/11/08 06:36:21;;;;;;;59.70;33.83;;;;;;;16.71;48.40;93370.72;5063543;28;20177;-85
2022/11/08 06:38:47;;;;;;;51.47;26.73;;;;;;;16.70;48.32;93372.72;5072217;28;20054;-86
2022/11/08 06:41:16;;;;;;;68.40;37.92;;;;;;;16.70;48.10;93367.25;5086484;28;20446;-87
2022/11/08 06:43:41;;;;;;;141.20;68.80;;;;;;;16.72;48.18;93375.69;5072872;28;20040;-87
2022/11/08 06:46:07;;;;;;;189.05;82.60;;;;;;;16.73;47.69;93382.63;5060646;28;20035;-87
2022/11/08 06:48:32;;;;;;;105.03;50.08;;;;;;;16.75;48.53;93374.69;5073209;28;20401;-86
2022/11/08 06:50:58;;;;;;;134.75;75.18;;;;;;;16.70;47.80;93374.69;5106202;28;20040;-87
2022/11/08 06:53:23;;;;;;;139.27;77.90;;;;;;;16.73;47.72;93379.91;5076912;28;20063;-87
2022/11/08 06:55:49;;;;;;;124.20;75.43;;;;;;;16.75;47.78;93368.50;5068368;28;20497;-87
2022/11/08 06:58:14;;;;;;;138.30;77.95;;;;;;;16.76;47.49;93369.97;5071540;28;20109;-86
2022/11/08 07:00:40;;;;;;;151.65;82.63;;;;;;;16.74;48.04;93370.47;5079855;28;20481;-86
2022/11/08 07:03:05;;;;;;;144.80;85.25;;;;;;;16.77;47.86;93369.47;5079423;28;20063;-88
2022/11/08 07:05:31;;;;;;;153.80;88.20;;;;;;;16.77;48.52;93363.28;5061198;28;20101;-88
2022/11/08 07:07:57;;;;;;;193.98;106.03;;;;;;;16.81;48.52;93369.22;5070209;28;20182;-88
2022/11/08 07:10:23;;;;;;;149.13;77.65;;;;;;;16.86;48.90;93371.19;5064842;28;20047;-86
2022/11/08 07:12:56;;;;;;;126.65;65.20;;;;;;;16.91;48.70;93370.41;5057049;28;20044;-87
2022/11/08 07:15:22;;;;;;;134.55;73.13;;;;;;;16.96;48.56;93374.38;5076828;28;20046;-87
2022/11/08 07:17:47;;;;;;;112.45;58.50;;;;;;;16.96;48.38;93368.91;5072338;28;20127;-87
2022/11/08 07:20:13;;;;;;;105.07;57.03;;;;;;;16.98;48.17;93369.16;5046530;28;20036;-87
2022/11/08 07:22:38;;;;;;;99.25;55.60;;;;;;;17.00;48.36;93363.94;5067800;28;20067;-87
2022/11/08 07:25:04;;;;;;;110.72;62.75;;;;;;;17.01;47.95;93362.69;5053126;28;20036;-87
2022/11/08 07:27:30;;;;;;;93.20;55.65;;;;;;;17.00;48.14;93369.41;5067808;28;20359;-86
2022/11/08 07:29:55;;;;;;;91.82;56.72;;;;;;;17.03;47.90;93369.16;5057541;28;20513;-86
2022/11/08 07:32:20;;;;;;;92.15;55.38;;;;;;;17.00;48.21;93372.13;5051263;28;20719;-85
2022/11/08 07:34:46;;;;;;;103.10;54.72;;;;;;;16.98;47.99;93372.63;5048290;28;20899;-88
2022/11/08 07:37:11;;;;;;;116.22;58.05;;;;;;;16.99;48.02;93373.38;5045293;28;20051;-86
2022/11/08 07:39:37;;;;;;;120.90;58.15;;;;;;;16.99;48.26;93370.66;5067576;28;20113;-85
2022/11/08 07:42:02;;;;;;;139.13;64.38;;;;;;;16.98;48.10;93372.63;5065406;28;20062;-86
2022/11/08 07:44:28;;;;;;;134.98;67.15;;;;;;;16.98;48.24;93377.34;5037284;28;20043;-85
2022/11/08 07:46:54;;;;;;;146.55;67.38;;;;;;;16.99;48.33;93367.91;5029501;28;20045;-85
2022/11/08 07:49:19;;;;;;;125.15;65.30;;;;;;;17.00;48.11;93370.16;5046590;28;20461;-86
2022/11/08 07:51:45;;;;;;;142.48;69.15;;;;;;;17.00;48.21;93361.94;5054194;28;20036;-90
2022/11/08 07:54:10;;;;;;;136.73;69.30;;;;;;;17.02;48.34;93366.91;5050620;28;20037;-85
2022/11/08 07:56:36;;;;;;;118.18;65.40;;;;;;;17.00;48.12;93369.41;5034995;28;20067;-86
2022/11/08 07:59:02;;;;;;;117.32;67.97;;;;;;;16.99;48.27;93374.13;5050695;28;20338;-88
2022/11/08 08:01:28;;;;;;;132.90;67.20;;;;;;;16.99;48.16;93371.38;5070003;28;20149;-87
2022/11/08 08:03:53;;;;;;;137.45;70.35;;;;;;;17.03;48.12;93374.59;5041417;28;20482;-86
2022/11/08 08:06:18;;;;;;;148.57;79.82;;;;;;;17.00;48.39;93367.41;5036982;28;20036;-86
2022/11/08 08:08:44;;;;;;;175.63;100.32;;;;;;;17.05;48.57;93371.38;5048405;28;20458;-87
2022/11/08 08:11:11;;;;;;;155.27;88.93;;;;;;;17.05;48.25;93372.13;5066893;28;20051;-87
2022/11/08 08:13:36;;;;;;;141.80;78.20;;;;;;;17.08;48.27;93373.09;5051435;28;20045;-88
2022/11/08 08:16:02;;;;;;;130.00;71.47;;;;;;;17.07;48.47;93374.34;5041941;28;20052;-86
2022/11/08 08:18:28;;;;;;;134.50;74.03;;;;;;;17.05;48.66;93376.84;5050234;28;20048;-86
2022/11/08 08:20:53;;;;;;;136.20;75.30;;;;;;;17.08;48.24;93376.59;5067340;28;20032;-86
2022/11/08 08:23:19;;;;;;;114.18;67.90;;;;;;;17.05;48.06;93377.59;5032666;28;20044;-86
2022/11/08 08:25:45;;;;;;;89.10;50.63;;;;;;;17.01;48.18;93381.81;5053386;28;20051;-86
2022/11/08 08:28:11;;;;;;;101.65;60.47;;;;;;;17.01;48.08;93377.09;5063158;28;20113;-86
2022/11/08 08:30:37;;;;;;;104.80;56.28;;;;;;;17.02;48.12;93383.31;5033817;28;20523;-86
2022/11/08 08:33:11;;;;;;;93.85;50.47;;;;;;;17.00;48.36;93378.34;5043566;28;20048;-87
2022/11/08 08:35:37;;;;;;;99.05;50.35;;;;;;;17.01;48.31;93377.09;5030867;28;20123;-87
2022/11/08 08:38:02;;;;;;;97.72;59.40;;;;;;;17.02;48.12;93375.09;5047814;28;20123;-88
2022/11/08 08:40:29;;;;;;;141.52;82.10;;;;;;;17.03;48.51;93377.34;5033612;28;20064;-85
2022/11/08 08:42:57;;;;;;;118.13;71.72;;;;;;;17.04;48.53;93372.63;5038505;28;20036;-85
2022/11/08 08:45:22;;;;;;;145.20;79.45;;;;;;;17.03;48.09;93369.16;5040345;28;25243;-86
2022/11/08 08:47:52;;;;;;;144.35;81.05;;;;;;;17.06;48.35;93364.66;5042106;28;20032;-88
2022/11/08 08:50:17;;;;;;;158.27;82.55;;;;;;;17.07;48.40;93371.63;5027625;28;20036;-88
2022/11/08 08:52:43;;;;;;;137.57;72.78;;;;;;;17.08;48.34;93362.19;5047891;28;20490;-86
2022/11/08 08:55:08;;;;;;;120.55;70.43;;;;;;;17.09;48.45;93372.59;5038705;28;20046;-86
2022/11/08 08:57:34;;;;;;;131.75;74.28;;;;;;;17.08;48.56;93370.38;5052874;28;20097;-88
2022/11/08 08:59:59;;;;;;;146.02;78.70;;;;;;;17.10;48.48;93365.88;5038610;28;20070;-88
2022/11/08 09:02:25;;;;;;;149.52;73.50;;;;;;;17.09;48.82;93364.41;5049210;28;20048;-87
2022/11/08 09:04:50;;;;;;;145.98;71.70;;;;;;;17.10;48.83;93357.69;5051878;28;20142;-88
2022/11/08 09:07:16;;;;;;;149.73;73.18;;;;;;;17.10;48.58;93363.13;5020081;28;20045;-88
2022/11/08 09:09:41;;;;;;;146.45;76.95;;;;;;;17.10;48.81;93360.41;5031161;28;20648;-86
2022/11/08 09:12:06;;;;;;;155.35;80.75;;;;;;;17.13;48.93;93351.22;5054416;28;20386;-88
2022/11/08 09:14:32;;;;;;;166.30;90.50;;;;;;;17.11;48.93;93358.41;5025674;28;20043;-88
2022/11/08 09:16:58;;;;;;;175.25;92.45;;;;;;;17.13;48.39;93356.66;5034382;28;20044;-88
2022/11/08 09:19:24;;;;;;;188.52;105.53;;;;;;;17.12;48.12;93362.63;5027130;28;20042;-88
2022/11/08 09:21:51;;;;;;;218.20;123.97;;;;;;;17.09;48.67;93363.66;5047955;28;20041;-90
2022/11/08 09:24:16;;;;;;;209.32;123.95;;;;;;;17.11;48.80;93364.63;5038055;28;20109;-89
2022/11/08 09:26:42;;;;;;;186.60;109.18;;;;;;;17.12;48.75;93366.09;5033523;28;20324;-88
2022/11/08 09:29:07;;;;;;;203.60;118.15;;;;;;;17.12;48.45;93357.19;5045721;28;20048;-86
2022/11/08 09:31:32;;;;;;;191.13;115.25;;;;;;;17.14;48.54;93360.16;5054173;28;20233;-86
2022/11/08 09:33:58;;;;;;;193.70;113.82;;;;;;;17.12;48.57;93351.72;5055368;28;20352;-88
2022/11/08 09:36:23;;;;;;;214.45;120.18;;;;;;;17.13;48.56;93356.66;5036402;28;20126;-87
2022/11/08 09:38:49;;;;;;;202.43;117.60;;;;;;;17.16;48.52;93352.19;5035854;28;20979;-88
2022/11/08 09:41:46;;;;;;;207.32;125.53;;;;;;;17.14;48.66;93357.41;5049751;28;20402;-90
2022/11/08 09:44:24;;;;;;;203.80;123.40;;;;;;;17.16;48.68;93352.19;5060627;28;20655;-87
2022/11/08 09:46:52;;;;;;;216.27;125.72;;;;;;;17.16;48.43;93354.19;5021507;28;20040;-88
2022/11/08 09:49:37;;;;;;;208.43;124.90;;;;;;;17.14;48.37;93354.69;5051099;28;20044;-89
2022/11/08 09:52:02;;;;;;;223.23;129.98;;;;;;;17.15;48.84;93358.91;5027266;28;20082;-90
2022/11/08 09:54:42;;;;;;;248.93;139.93;;;;;;;17.13;48.53;93356.66;5046914;28;20044;-88
2022/11/08 09:57:26;;;;;;;221.90;128.43;;;;;;;17.14;48.85;93357.41;5044534;28;20071;-88
2022/11/08 09:59:56;;;;;;;215.05;113.65;;;;;;;17.17;48.04;93353.69;5036840;28;20107;-87
2022/11/08 10:02:22;;;;;;;224.48;121.85;;;;;;;17.16;48.12;93357.66;5036510;28;20036;-89
2022/11/08 10:04:54;;;;;;;242.18;133.10;;;;;;;17.17;48.62;93353.69;5029031;28;20047;-90
2022/11/08 10:07:41;;;;;;;213.77;120.60;;;;;;;17.19;48.71;93347.72;5042425;28;20086;-89
2022/11/08 10:10:06;;;;;;;207.38;119.75;;;;;;;17.18;48.24;93343.50;5060941;28;20044;-89
2022/11/08 10:12:37;;;;;;;219.48;127.53;;;;;;;17.17;48.71;93345.50;5062339;28;20067;-89
2022/11/08 10:15:12;;;;;;;;;;;;;;;17.17;48.83;93337.28;5088764;28;20459;-89
2022/11/08 10:18:12;;;;;;;226.18;121.45;;;;;;;17.18;48.74;93340.75;5092334;28;19930;-88
2022/11/08 10:21:04;;;;;;;273.73;152.50;;;;;;;17.17;48.81;93333.81;5068985;28;20047;-87
2022/11/08 10:23:43;;;;;;;275.67;160.57;;;;;;;17.17;48.78;93340.03;5046553;28;20071;-89
2022/11/08 10:26:12;;;;;;;251.85;147.32;;;;;;;17.17;48.57;93345.50;5035180;28;20033;-89
2022/11/08 10:28:41;;;;;;;247.10;146.38;;;;;;;17.17;48.81;93333.81;5034286;28;20043;-87
2022/11/08 10:31:06;;;;;;;224.27;136.07;;;;;;;17.19;48.68;93336.78;5048264;28;20078;-88
2022/11/08 10:33:51;;;;;;;229.27;130.80;;;;;;;17.17;48.83;93329.09;5052362;28;20683;-86
2022/11/08 10:36:32;;;;;;;235.20;136.32;;;;;;;17.21;48.42;93326.84;5073691;28;20119;-88
2022/11/08 10:39:23;;;;;;;233.35;134.45;;;;;;;17.19;48.29;93325.88;5074818;28;20039;-88
2022/11/08 10:42:07;;;;;;;216.55;121.32;;;;;;;17.18;48.46;93330.59;5055641;28;20414;-89
2022/11/08 10:44:32;;;;;;;195.57;110.25;;;;;;;17.17;48.05;93312.72;5083830;28;20042;-89
2022/11/08 10:46:59;;;;;;;162.95;92.50;;;;;;;17.16;47.81;93319.41;5048090;28;20040;-89
2022/11/08 10:49:30;;;;;;;138.25;81.03;;;;;;;17.11;47.26;93328.38;5067603;28;20529;-90
2022/11/08 10:51:57;;;;;;;109.95;64.78;;;;;;;17.10;46.86;93324.19;5073293;28;20268;-89
2022/11/08 10:54:42;;;;;;;96.75;57.00;;;;;;;17.11;46.65;93320.19;5058671;28;20510;-89
2022/11/08 10:57:12;;;;;;;100.78;51.30;;;;;;;17.10;46.08;93310.53;5085419;28;20035;-90
2022/11/08 10:59:37;;;;;;;81.32;43.83;;;;;;;17.08;46.20;93310.28;5063215;28;20599;-90
2022/11/08 11:02:19;;;;;;;75.95;42.45;;;;;;;17.08;46.01;93308.31;5048430;28;20067;-88
2022/11/08 11:04:44;;;;;;;65.93;39.97;;;;;;;17.04;45.83;93309.81;5078569;28;20115;-87
2022/11/08 11:07:24;;;;;;;66.57;36.50;;;;;;;17.04;46.12;93310.56;5061052;28;20064;-88
2022/11/08 11:09:49;;;;;;;75.50;36.28;;;;;;;17.04;46.27;93301.63;5100222;28;20044;-85
2022/11/08 11:12:15;;;;;;;57.90;32.25;;;;;;;17.01;45.70;93305.34;5046560;28;20040;-87
2022/11/08 11:14:40;;;;;;;56.83;30.73;;;;;;;16.99;46.10;93297.66;5036165;28;20020;-87
2022/11/08 11:17:18;;;;;;;49.63;28.20;;;;;;;16.98;45.93;93298.16;5075806;28;20044;-86
2022/11/08 11:19:52;;;;;;;45.35;26.83;;;;;;;16.97;46.11;93293.94;5087220;28;20047;-87
2022/11/08 11:22:30;;;;;;;42.50;25.40;;;;;;;16.96;46.33;93295.94;5072162;28;20070;-86
2022/11/08 11:24:55;;;;;;;46.15;24.88;;;;;;;16.98;46.07;93289.97;5056227;28;20038;-87
2022/11/08 11:27:32;;;;;;;33.72;21.70;;;;;;;16.98;46.15;93282.53;5066333;28;20032;-85
2022/11/08 11:30:20;;;;;;;37.58;21.50;;;;;;;16.96;45.85;93285.00;5087088;28;20079;-86
2022/11/08 11:32:55;;;;;;;35.58;18.77;;;;;;;16.95;45.82;93280.06;5081502;28;20123;-87
2022/11/08 11:35:20;;;;;;;33.40;18.13;;;;;;;16.95;45.77;93280.78;5074913;28;20129;-87
2022/11/08 11:37:47;;;;;;;30.55;17.88;;;;;;;16.96;45.71;93284.25;5081099;28;20098;-86
2022/11/08 11:40:14;;;;;;;22.70;14.45;;;;;;;16.93;46.06;93277.81;5047378;28;20074;-88
2022/11/08 11:43:07;;;;;;;22.38;14.57;;;;;;;16.92;45.76;93273.59;5089933;28;20049;-87